Alcova, WY (82620)

2:09 PM MDT on July 30, 2014 (GMT -0600)
The Estates (KWYALCOV2) Elev 5489 ft | 42.53 °N, 106.78 °W | Change Station

Current weather conditions updated 9 seconds ago

Clear
Clear
70.5 °F
Feels Like 77 °F
N
1.0
Wind Variable Wind from SE
Gusts 10.0 mph

Today is forecast to be Cooler than yesterday.

Today
High -- | Low -- °F
--% Chance of Precip.
Yesterday
High -- | Low -- °F
Precip. -- in
5:57 AM 8:29 PM
Waxing Crescent, 13% visible
Pressure 30.14 in
Visibility 10.0 miles
Clouds Clear
Heat Index 77 °F
Dew Point 47 °F
Humidity 43%
Rainfall 0.02 in
Snow Depth Not available.
UV 11 out of 12
Pollen 5.00 out of 12
Air Quality Not available.
Flu Activity Not available.
METAR KCPR 301953Z 07009KT 040V110 10SM CLR 24/06 A3030 RMK AO2 SLP204 T02390056

More Conditions Fewer Conditions

Pressure 30.14 in
Visibility 10.0 miles
Clouds Clear
Heat Index 77 °F
Dew Point 47 °F
Humidity 43%
Rainfall 0.02 in
Snow Depth Not available.
UV 11 out of 12
Pollen 5.00 out of 12
Air Quality Not available.
Flu Activity Not available.
METAR KCPR 301953Z 07009KT 040V110 10SM CLR 24/06 A3030 RMK AO2 SLP204 T02390056

More Conditions Fewer Conditions

10-Day Weather Forecast

Almanac

Astronomy

Jul. 30, 2014 Rise Set
Actual Time 5:57 AM MDT 8:29 PM MDT
Civil Twilight 5:25 AM MDT 9:01 PM MDT
Nautical Twilight 4:45 AM MDT 9:41 PM MDT
Astronomical Twilight 4:00 AM MDT 10:26 PM MDT
Moon 9:37 AM MDT 10:07 PM MDT
Length of Visible Light 15h 35m
Length of Day
14h 31m
Tomorrow will be 2m 8s shorter.
Waxing Crescent, 13% of the Moon is Illuminated
Today
Waxing Crescent
Aug 3
First Quarter
Aug 10
Full
Aug 17
Last Quarter
Aug 25
New

Today's Extremes

State Highs State Lows

Community

WunderPhotos

Upload Photos

1,739,170 photos uploaded!

WunderBlogs® & News

Nearby

Snow Depth

Station Depth Elevation
Casper Mountain 0 in 7850 ft
Sage Creek Basin 0 in 7850 ft
Sand Lake 0 in 10050 ft
South Brush Creek 0 in 8440 ft
Brooklyn Lake 0 in 10220 ft

Earthquake Activity

City Distance Mag. Time & Date
No recent earthquake activity has been reported nearby.
Minimum magnitude displayed is 2.5.

Coastal Water Temperatures

Place Temperature
No Stations Reporting

Nearby Weather Stations

Station Location Temp. Heat Index Dew Point Humidity Wind Precip. Elev Updated Type
HADS PATHFINDER DAM WEATHER STATION N WY, Alcova, WY 69 °F - - - NE  at  6 mph 0.00 in / hr 5856 ft 12:30 PM MDT MADIS
The Estates, Alcova, WY 70.5 °F 77 °F 47 °F 43% SE  at  1.0 mph 0.00 in / hr 5489 ft 2:09 PM MDT Rapid Fire
HADS SWEETWATER RIVER NEAR ALCOVA 25W WY, Alcova, WY 70 °F - - - North  at  - 0.00 in / hr 5918 ft 12:45 PM MDT MADIS

Show More Stations Show Fewer Stations